< < Back
Terminal Aerodrome Forecast


Current Version              Previous Versions:   1  2  3  4  5  6  7  8  9  

Terminal Aerodrome Forecast

506
FTUS44 KOHX 031120
TAFCSV
TAF
KCSV 031120Z 0312/0412 00000KT P6SM SCT200
     FM031700 36003KT P6SM BKN080 BKN200
     FM040000 00000KT P6SM BKN200=



Latest METAR

229
SAUS70 KWBC 040700 RRF
MTRCSV
METAR KCSV 040653Z AUTO 00000KT 3SM BR CLR 20/18 A3005 RMK AO2 SLP152
T02000183


USA.gov is the U.S. government's official web portal to all federal, state and local government web resources and services.